Time;durP1;ratioP1;P1;durP2;ratioP2;P2;SDS_P1;SDS_P2;PMS_P1;PMS_P2;Temp;Humidity;BMP_temperature;BMP_pressure;BME280_temperature;BME280_humidity;BME280_pressure;Samples;Min_cycle;Max_cycle;Signal;HPM_P1;HPM_P2
2021/12/24 00:01:40;;;;;;;32.47;17.77;;;10.10;99.90;;;;;;4934725;29;20202;-84
2021/12/24 00:04:09;;;;;;;35.50;17.67;;;10.10;99.90;;;;;;4934742;29;20222;-83
2021/12/24 00:06:36;;;;;;;31.23;16.87;;;10.20;99.90;;;;;;4934074;29;20920;-82
2021/12/24 00:09:04;;;;;;;34.37;17.00;;;10.10;99.90;;;;;;4942359;29;20213;-84
2021/12/24 00:11:31;;;;;;;34.23;16.47;;;10.10;99.90;;;;;;4953117;29;20205;-84
2021/12/24 00:13:59;;;;;;;36.10;18.83;;;10.10;99.90;;;;;;4953544;29;20205;-84
2021/12/24 00:16:35;;;;;;;37.57;18.10;;;10.10;99.90;;;;;;4940219;29;20225;-84
2021/12/24 00:19:13;;;;;;;43.03;18.57;;;10.20;99.90;;;;;;4934437;29;20213;-84
2021/12/24 00:35:30;;;;;;;49.03;21.30;;;10.30;99.90;;;;;;4953755;29;20221;-84
2021/12/24 00:38:03;;;;;;;50.30;22.40;;;10.30;99.90;;;;;;4953646;29;20205;-85
2021/12/24 00:40:31;;;;;;;51.20;21.57;;;10.30;99.90;;;;;;4952689;29;20276;-87
2021/12/24 00:42:58;;;;;;;53.90;24.27;;;10.30;99.90;;;;;;4953854;28;20212;-86
2021/12/24 00:45:27;;;;;;;66.60;25.50;;;10.30;99.90;;;;;;4951942;29;20224;-83
2021/12/24 00:47:56;;;;;;;59.07;23.90;;;10.40;99.90;;;;;;4934456;29;20194;-85
2021/12/24 00:50:30;;;;;;;55.97;23.37;;;10.40;99.90;;;;;;4953165;29;20205;-85
2021/12/24 00:53:02;;;;;;;50.50;23.77;;;10.40;99.90;;;;;;4953698;29;20296;-85
2021/12/24 00:55:30;;;;;;;53.73;22.50;;;10.40;99.90;;;;;;4952622;29;20233;-85
2021/12/24 00:57:59;;;;;;;58.00;24.23;;;10.40;99.90;;;;;;4953239;29;20200;-85
2021/12/24 01:00:30;;;;;;;48.87;23.73;;;10.40;99.90;;;;;;4947175;28;20221;-83
2021/12/24 01:02:59;;;;;;;48.60;22.83;;;10.40;99.90;;;;;;4932524;29;20603;-84
2021/12/24 01:05:29;;;;;;;58.77;23.20;;;10.40;99.90;;;;;;4933393;29;20513;-83
2021/12/24 01:07:56;;;;;;;51.57;21.97;;;10.40;99.90;;;;;;4933554;29;20237;-86
2021/12/24 01:10:27;;;;;;;54.57;23.50;;;10.40;99.90;;;;;;4933394;29;20225;-84
2021/12/24 01:12:54;;;;;;;49.70;22.60;;;10.40;99.90;;;;;;4932957;29;20210;-85
2021/12/24 01:15:21;;;;;;;48.57;22.93;;;10.40;99.90;;;;;;4934017;29;20210;-85
2021/12/24 01:17:55;;;;;;;50.43;23.47;;;10.30;99.90;;;;;;4934202;29;20209;-85
2021/12/24 01:20:28;;;;;;;46.63;23.70;;;10.30;99.90;;;;;;4933960;29;20201;-85
2021/12/24 01:25:44;;;;;;;50.33;22.70;;;10.30;99.90;;;;;;4943688;29;20537;-85
2021/12/24 01:39:14;;;;;;;48.43;20.93;;;10.40;99.90;;;;;;4933090;29;20303;-86
2021/12/24 01:44:28;;;;;;;56.87;21.10;;;10.40;99.90;;;;;;4935961;29;20260;-85
2021/12/24 01:46:59;;;;;;;47.27;20.50;;;10.40;99.90;;;;;;4952497;29;20221;-85
2021/12/24 01:49:27;;;;;;;52.07;21.70;;;10.40;99.90;;;;;;4950970;29;20212;-80
2021/12/24 01:51:55;;;;;;;51.67;19.83;;;10.40;99.90;;;;;;4951474;29;20205;-86
2021/12/24 01:54:22;;;;;;;46.10;21.40;;;10.40;99.90;;;;;;4940670;29;20704;-86
2021/12/24 01:56:51;;;;;;;47.43;19.90;;;10.40;99.90;;;;;;4933487;29;20209;-84
2021/12/24 01:59:17;;;;;;;43.70;20.07;;;10.40;99.90;;;;;;4933465;29;20198;-84
2021/12/24 02:01:45;;;;;;;49.00;19.93;;;10.40;99.90;;;;;;4931089;29;20231;-83
2021/12/24 02:04:13;;;;;;;48.40;18.87;;;10.40;99.90;;;;;;4939140;29;20220;-86
2021/12/24 02:06:42;;;;;;;50.20;19.50;;;10.40;99.90;;;;;;4950275;29;20615;-86
2021/12/24 02:09:10;;;;;;;43.17;18.07;;;10.40;99.90;;;;;;4952497;29;20201;-84
2021/12/24 02:11:38;;;;;;;48.00;18.97;;;10.40;99.90;;;;;;4949348;29;20205;-81
2021/12/24 02:14:08;;;;;;;48.10;19.17;;;10.40;99.90;;;;;;4951324;29;20227;-85
2021/12/24 02:16:49;;;;;;;40.73;17.37;;;10.40;99.90;;;;;;4945756;29;20206;-86
2021/12/24 02:30:28;;;;;;;47.50;19.43;;;10.40;99.90;;;;;;4925014;29;20248;-87
2021/12/24 02:32:55;;;;;;;44.40;20.07;;;10.30;99.90;;;;;;4932696;29;20209;-86
2021/12/24 02:35:22;;;;;;;42.73;19.07;;;10.30;99.90;;;;;;4932932;29;20198;-86
2021/12/24 02:37:51;;;;;;;35.13;19.47;;;10.30;99.90;;;;;;4932429;29;20213;-83
2021/12/24 02:40:18;;;;;;;43.87;19.53;;;10.30;99.90;;;;;;4932399;29;20304;-85
2021/12/24 02:42:50;;;;;;;46.80;19.27;;;10.30;99.90;;;;;;4931886;29;20213;-87
2021/12/24 02:45:17;;;;;;;42.67;17.70;;;10.30;99.90;;;;;;4941248;29;20224;-83
2021/12/24 02:48:06;;;;;;;50.13;18.80;;;10.30;99.90;;;;;;4941630;29;20232;-88
2021/12/24 02:56:05;;;;;;;39.73;17.70;;;10.20;99.90;;;;;;4950952;29;20196;-86
2021/12/24 02:58:39;;;;;;;46.53;16.60;;;10.30;99.90;;;;;;4950040;29;20541;-84
2021/12/24 03:01:06;;;;;;;42.30;16.17;;;10.30;99.90;;;;;;4950550;29;20610;-84
2021/12/24 03:03:33;;;;;;;39.13;15.53;;;10.30;99.90;;;;;;4950814;29;20198;-85
2021/12/24 03:06:00;;;;;;;37.60;15.43;;;10.20;99.90;;;;;;4950862;29;20213;-85
2021/12/24 03:08:28;;;;;;;34.70;13.20;;;10.20;99.90;;;;;;4950814;29;20261;-85
2021/12/24 03:10:57;;;;;;;39.30;14.37;;;10.20;99.90;;;;;;4946012;29;20525;-84
2021/12/24 03:13:25;;;;;;;39.43;13.60;;;10.20;99.90;;;;;;4931849;29;20202;-83
2021/12/24 03:15:54;;;;;;;34.67;12.37;;;10.20;99.90;;;;;;4932697;29;20221;-86
2021/12/24 03:18:25;;;;;;;27.60;11.77;;;10.20;99.90;;;;;;4932458;29;20197;-85
2021/12/24 03:20:58;;;;;;;34.20;12.50;;;10.20;99.90;;;;;;4931835;29;20303;-82
2021/12/24 03:23:35;;;;;;;33.23;11.93;;;10.20;99.90;;;;;;4931041;29;20191;-84
2021/12/24 03:26:05;;;;;;;26.33;11.60;;;10.20;99.90;;;;;;4934825;29;20609;-83
2021/12/24 03:28:33;;;;;;;24.50;11.77;;;10.20;99.90;;;;;;4947955;29;20233;-86
2021/12/24 03:31:00;;;;;;;38.87;12.27;;;10.20;99.90;;;;;;4953945;29;20205;-83
2021/12/24 03:33:27;;;;;;;30.67;12.20;;;10.20;99.90;;;;;;4953266;29;20209;-86
2021/12/24 03:35:54;;;;;;;35.37;13.07;;;10.20;99.90;;;;;;4952915;29;20216;-84
2021/12/24 03:38:21;;;;;;;28.50;11.53;;;10.20;99.90;;;;;;4934859;29;20527;-85
2021/12/24 03:40:48;;;;;;;37.53;12.90;;;10.10;99.90;;;;;;4934861;29;20210;-85
2021/12/24 03:43:17;;;;;;;29.30;12.07;;;10.20;99.90;;;;;;4936697;29;20229;-88
2021/12/24 03:45:49;;;;;;;32.30;12.47;;;10.20;99.90;;;;;;4936461;29;20622;-86
2021/12/24 03:48:21;;;;;;;34.17;11.47;;;10.20;99.90;;;;;;4942778;29;20233;-87
2021/12/24 03:50:57;;;;;;;35.10;11.83;;;10.20;99.90;;;;;;4955832;29;20201;-87
2021/12/24 03:56:05;;;;;;;34.70;10.43;;;10.20;99.90;;;;;;4923970;29;20305;-88
2021/12/24 03:58:33;;;;;;;24.77;11.67;;;10.10;99.90;;;;;;4934514;29;20739;-89
2021/12/24 04:01:00;;;;;;;29.87;10.97;;;10.10;99.90;;;;;;4934527;29;20826;-86
2021/12/24 04:03:27;;;;;;;36.27;10.03;;;10.10;99.90;;;;;;4935546;29;20494;-86
2021/12/24 04:05:53;;;;;;;27.07;11.17;;;10.10;99.90;;;;;;4934996;29;20198;-84
2021/12/24 04:08:20;;;;;;;33.47;10.03;;;10.10;99.90;;;;;;4934787;29;20225;-85
2021/12/24 04:10:47;;;;;;;37.17;10.53;;;10.10;99.90;;;;;;4934960;29;20205;-82
2021/12/24 04:13:15;;;;;;;24.17;9.00;;;10.00;99.90;;;;;;4934801;29;20209;-82
2021/12/24 04:15:43;;;;;;;24.63;9.10;;;10.00;99.90;;;;;;4934791;29;20221;-89
2021/12/24 04:18:19;;;;;;;30.03;10.17;;;10.00;99.90;;;;;;4934200;29;20214;-87
2021/12/24 04:26:14;;;;;;;30.20;8.83;;;10.00;99.90;;;;;;4933706;29;20209;-86
2021/12/24 04:28:41;;;;;;;26.43;8.83;;;10.00;99.90;;;;;;4932900;29;20237;-88
2021/12/24 04:31:11;;;;;;;24.90;8.97;;;10.00;99.90;;;;;;4951147;29;20221;-86
2021/12/24 04:33:45;;;;;;;23.67;9.10;;;10.00;99.90;;;;;;4951928;29;20205;-84
2021/12/24 04:36:34;;;;;;;25.47;8.83;;;10.00;99.90;;;;;;4940509;28;20206;-82
2021/12/24 04:39:26;;;;;;;29.80;8.33;;;10.00;99.90;;;;;;4933506;29;20210;-86
2021/12/24 04:53:10;;;;;;;25.90;7.87;;;9.80;99.90;;;;;;4934020;29;20225;-83
2021/12/24 05:01:30;;;;;;;32.13;7.50;;;9.80;99.90;;;;;;4933211;29;20192;-85
2021/12/24 05:04:02;;;;;;;25.87;7.77;;;9.80;99.90;;;;;;4935468;29;20524;-83
2021/12/24 05:06:34;;;;;;;30.23;8.27;;;9.80;99.90;;;;;;4951849;29;20201;-81
2021/12/24 05:09:07;;;;;;;28.40;6.40;;;9.70;99.90;;;;;;4951535;29;20646;-86
2021/12/24 05:11:34;;;;;;;29.70;7.50;;;9.70;99.90;;;;;;4948828;29;20324;-83
2021/12/24 05:14:01;;;;;;;29.03;6.87;;;9.70;99.90;;;;;;4948315;29;20210;-86
2021/12/24 05:16:40;;;;;;;29.27;6.37;;;9.70;99.90;;;;;;4935506;29;20670;-85
2021/12/24 05:21:54;;;;;;;30.70;6.83;;;9.60;99.90;;;;;;4940005;29;20204;-85
2021/12/24 05:24:25;;;;;;;26.53;7.13;;;9.60;99.90;;;;;;4954167;29;20288;-87
2021/12/24 05:26:54;;;;;;;30.37;6.43;;;9.60;99.90;;;;;;4953965;29;20508;-84
2021/12/24 05:29:21;;;;;;;31.53;6.33;;;9.60;99.90;;;;;;4953115;29;20248;-81
2021/12/24 05:31:48;;;;;;;28.47;7.30;;;9.60;99.90;;;;;;4953642;29;20197;-84
2021/12/24 05:34:18;;;;;;;29.97;6.37;;;9.60;99.90;;;;;;4953491;29;20209;-88
2021/12/24 05:36:46;;;;;;;28.53;5.87;;;9.60;99.90;;;;;;4952303;29;20201;-81
2021/12/24 05:39:14;;;;;;;27.30;6.87;;;9.60;99.90;;;;;;4952942;29;20205;-82
2021/12/24 05:41:41;;;;;;;27.63;5.30;;;9.60;99.90;;;;;;4953564;29;20197;-89
2021/12/24 05:44:09;;;;;;;22.07;7.07;;;9.60;99.90;;;;;;4953355;28;20213;-88
2021/12/24 05:46:36;;;;;;;24.57;5.77;;;9.60;99.90;;;;;;4931543;29;20270;-88
2021/12/24 05:49:03;;;;;;;32.23;6.10;;;9.60;99.90;;;;;;4932455;29;20265;-87
2021/12/24 05:51:33;;;;;;;29.97;6.70;;;9.60;99.90;;;;;;4934373;29;20213;-86
2021/12/24 05:54:00;;;;;;;25.67;6.33;;;9.60;99.90;;;;;;4952216;29;20217;-86
2021/12/24 05:56:27;;;;;;;23.33;6.03;;;9.60;99.90;;;;;;4952511;29;20280;-84
2021/12/24 05:58:54;;;;;;;24.90;6.97;;;9.60;99.90;;;;;;4952968;29;20634;-84
2021/12/24 06:01:23;;;;;;;28.27;5.47;;;9.60;99.90;;;;;;4950930;29;20221;-84
2021/12/24 06:03:50;;;;;;;34.33;6.97;;;9.60;99.90;;;;;;4949502;29;20216;-82
2021/12/24 06:06:17;;;;;;;22.07;5.80;;;9.50;99.90;;;;;;4951382;29;20208;-80
2021/12/24 06:08:46;;;;;;;28.70;7.27;;;9.50;99.90;;;;;;4945550;29;20237;-84
2021/12/24 06:11:12;;;;;;;24.57;5.67;;;9.50;99.90;;;;;;4931132;29;20507;-83
2021/12/24 06:13:39;;;;;;;26.70;6.30;;;9.50;99.90;;;;;;4930759;29;20210;-80
2021/12/24 06:16:07;;;;;;;40.40;7.60;;;9.50;99.90;;;;;;4931832;29;20198;-87
2021/12/24 06:18:38;;;;;;;27.70;6.53;;;9.50;99.90;;;;;;4933832;29;20217;-87
2021/12/24 06:21:06;;;;;;;27.73;5.63;;;9.60;99.90;;;;;;4933461;29;20205;-88
2021/12/24 06:23:34;;;;;;;21.23;4.90;;;9.60;99.90;;;;;;4933590;29;20210;-89
2021/12/24 06:26:03;;;;;;;29.43;5.80;;;9.50;99.90;;;;;;4933460;29;20209;-86
2021/12/24 06:28:30;;;;;;;25.00;5.23;;;9.50;99.90;;;;;;4930825;29;20253;-85
2021/12/24 06:30:57;;;;;;;26.80;6.00;;;9.50;99.90;;;;;;4930640;29;20490;-82
2021/12/24 06:33:24;;;;;;;33.47;7.27;;;9.50;99.90;;;;;;4930530;29;20544;-83
2021/12/24 06:35:54;;;;;;;27.03;6.23;;;9.50;99.90;;;;;;4929857;29;20218;-82
2021/12/24 06:38:21;;;;;;;29.03;6.43;;;9.60;99.90;;;;;;4930576;29;20288;-81
2021/12/24 06:40:49;;;;;;;24.73;5.13;;;9.60;99.90;;;;;;4930803;29;20210;-84
2021/12/24 06:43:17;;;;;;;23.87;6.47;;;9.50;99.90;;;;;;4929731;29;20217;-84
2021/12/24 06:45:46;;;;;;;21.97;5.40;;;9.50;99.90;;;;;;4941942;29;20220;-87
2021/12/24 06:48:14;;;;;;;25.43;6.60;;;9.50;99.90;;;;;;4952377;29;20265;-84
2021/12/24 06:50:41;;;;;;;24.83;5.57;;;9.50;99.90;;;;;;4952059;29;20893;-87
2021/12/24 06:53:08;;;;;;;27.03;6.67;;;9.50;99.90;;;;;;4952420;29;20201;-85
2021/12/24 06:55:36;;;;;;;26.57;6.07;;;9.50;99.90;;;;;;4952111;29;20554;-83
2021/12/24 06:58:03;;;;;;;23.27;6.80;;;9.50;99.90;;;;;;4951446;28;20239;-86
2021/12/24 07:00:31;;;;;;;24.83;5.33;;;9.50;99.90;;;;;;4951489;29;20575;-88
2021/12/24 07:02:58;;;;;;;28.80;6.17;;;9.50;99.90;;;;;;4946467;29;20221;-86
2021/12/24 07:05:25;;;;;;;25.27;6.50;;;9.50;99.90;;;;;;4936468;29;20202;-86
2021/12/24 07:07:52;;;;;;;29.23;7.07;;;9.40;99.90;;;;;;4934494;29;20543;-85
2021/12/24 07:10:19;;;;;;;30.93;6.53;;;9.40;99.90;;;;;;4932734;29;20725;-86
2021/12/24 07:12:46;;;;;;;24.33;5.67;;;9.40;99.90;;;;;;4933089;29;20214;-84
2021/12/24 07:15:13;;;;;;;20.63;5.70;;;9.40;99.90;;;;;;4933696;29;20265;-90
2021/12/24 07:17:41;;;;;;;21.70;6.17;;;9.40;99.90;;;;;;4939361;29;20193;-89
2021/12/24 07:20:09;;;;;;;27.97;7.00;;;9.50;99.90;;;;;;4953316;29;20205;-89
2021/12/24 07:22:36;;;;;;;19.20;5.53;;;9.50;99.90;;;;;;4953169;29;20217;-87
2021/12/24 07:25:06;;;;;;;26.07;6.93;;;9.50;99.90;;;;;;4940923;29;20604;-85
2021/12/24 07:27:32;;;;;;;28.73;7.27;;;9.50;99.90;;;;;;4934354;29;20210;-86
2021/12/24 07:29:59;;;;;;;34.17;6.67;;;9.60;99.90;;;;;;4934804;29;20617;-87
2021/12/24 07:32:26;;;;;;;33.67;7.40;;;9.60;99.90;;;;;;4933247;29;20206;-83
2021/12/24 07:34:54;;;;;;;27.17;7.20;;;9.60;99.90;;;;;;4933681;29;20213;-88
2021/12/24 07:37:21;;;;;;;34.13;6.03;;;9.60;99.90;;;;;;4934987;29;20206;-87
2021/12/24 07:39:48;;;;;;;27.07;5.83;;;9.60;99.90;;;;;;4936667;29;20206;-84
2021/12/24 07:42:15;;;;;;;27.33;6.27;;;9.60;99.90;;;;;;4937610;29;20206;-88
2021/12/24 07:44:41;;;;;;;23.97;5.63;;;9.60;99.90;;;;;;4936749;29;20226;-89
2021/12/24 07:47:15;;;;;;;35.13;5.87;;;9.70;99.90;;;;;;4955187;29;20213;-84
2021/12/24 07:49:44;;;;;;;31.63;7.70;;;9.70;99.90;;;;;;4955385;29;20213;-89
2021/12/24 07:52:13;;;;;;;31.00;6.27;;;9.70;99.90;;;;;;4949551;29;20607;-86
2021/12/24 07:54:43;;;;;;;27.67;7.20;;;9.80;99.90;;;;;;4934780;29;20325;-90
2021/12/24 07:57:12;;;;;;;28.00;6.17;;;9.80;99.90;;;;;;4934614;29;20496;-88
2021/12/24 07:59:39;;;;;;;40.97;7.27;;;9.80;99.90;;;;;;4936704;29;20209;-88
2021/12/24 08:02:14;;;;;;;29.73;7.17;;;9.80;99.90;;;;;;4955278;29;20209;-84
2021/12/24 08:04:41;;;;;;;32.80;7.60;;;9.70;99.90;;;;;;4954097;29;20197;-88
2021/12/24 08:07:09;;;;;;;24.93;5.77;;;9.80;99.90;;;;;;4935845;29;20741;-87
2021/12/24 08:09:37;;;;;;;32.00;7.87;;;9.80;99.90;;;;;;4935475;29;20236;-84
2021/12/24 08:12:14;;;;;;;32.03;6.97;;;9.70;99.90;;;;;;4915382;29;20213;-88
2021/12/24 08:14:41;;;;;;;32.53;7.07;;;9.80;99.90;;;;;;4932500;29;20300;-87
2021/12/24 08:17:08;;;;;;;27.13;7.27;;;9.80;99.90;;;;;;4933831;29;20210;-90
2021/12/24 08:19:35;;;;;;;28.20;7.10;;;9.80;99.90;;;;;;4932625;29;20536;-89
2021/12/24 08:22:02;;;;;;;24.10;5.90;;;9.80;99.90;;;;;;4934741;29;20208;-90
2021/12/24 08:24:30;;;;;;;30.43;6.40;;;9.80;99.90;;;;;;4939893;29;20225;-86
2021/12/24 08:26:59;;;;;;;32.47;6.90;;;9.80;99.90;;;;;;4949920;29;20598;-85
2021/12/24 08:29:26;;;;;;;33.93;7.57;;;9.80;99.90;;;;;;4954400;29;20247;-90
2021/12/24 08:31:54;;;;;;;34.70;7.40;;;9.80;99.90;;;;;;4955453;29;20622;-89
2021/12/24 08:34:21;;;;;;;28.17;6.90;;;9.80;99.90;;;;;;4954734;29;20208;-86
2021/12/24 08:36:52;;;;;;;29.40;6.70;;;9.90;99.90;;;;;;4955215;29;20313;-92
2021/12/24 08:39:22;;;;;;;34.50;6.43;;;9.80;99.90;;;;;;4942038;29;20222;-89
2021/12/24 08:41:54;;;;;;;36.87;9.70;;;9.90;99.90;;;;;;4936726;29;20234;-88
2021/12/24 08:44:24;;;;;;;26.57;7.77;;;9.90;99.90;;;;;;4935592;29;20285;-90
2021/12/24 08:46:51;;;;;;;30.63;7.37;;;9.90;99.90;;;;;;4936360;29;20202;-91
2021/12/24 08:49:18;;;;;;;27.83;8.00;;;9.80;99.90;;;;;;4936248;29;20230;-90
2021/12/24 08:51:45;;;;;;;33.60;8.43;;;9.80;99.90;;;;;;4935386;29;20209;-90
2021/12/24 08:54:12;;;;;;;35.57;8.00;;;9.80;99.90;;;;;;4935274;29;20210;-90
2021/12/24 08:56:39;;;;;;;34.30;8.83;;;9.80;99.90;;;;;;4943582;29;20289;-89
2021/12/24 08:59:06;;;;;;;34.80;10.00;;;9.80;99.90;;;;;;4954738;29;20201;-89
2021/12/24 09:01:34;;;;;;;33.40;8.53;;;9.80;99.90;;;;;;4954629;29;20257;-92
2021/12/24 09:04:01;;;;;;;36.77;10.47;;;9.90;99.90;;;;;;4954903;29;20194;-91
2021/12/24 09:06:28;;;;;;;29.53;9.20;;;9.80;99.90;;;;;;4954206;29;20598;-89
2021/12/24 09:08:55;;;;;;;35.80;10.63;;;9.80;99.90;;;;;;4954959;29;20217;-91
2021/12/24 09:11:22;;;;;;;36.73;9.83;;;9.80;99.90;;;;;;4955166;29;20202;-88
2021/12/24 09:13:49;;;;;;;33.00;9.50;;;9.80;99.90;;;;;;4955624;29;20202;-89
2021/12/24 09:16:15;;;;;;;27.03;9.33;;;9.80;99.90;;;;;;4953946;29;20198;-89
2021/12/24 09:18:44;;;;;;;38.17;10.60;;;9.80;99.90;;;;;;4953903;29;20202;-89
2021/12/24 09:21:15;;;;;;;28.97;10.07;;;9.80;99.90;;;;;;4954214;28;20225;-88
2021/12/24 09:23:43;;;;;;;39.27;11.80;;;9.80;99.90;;;;;;4942357;29;20599;-88
2021/12/24 09:26:10;;;;;;;34.73;10.27;;;9.80;99.90;;;;;;4935587;29;20198;-90
2021/12/24 09:28:37;;;;;;;32.70;10.13;;;9.80;99.90;;;;;;4953507;29;20229;-88
2021/12/24 09:31:04;;;;;;;32.63;9.67;;;9.80;99.90;;;;;;4954196;29;20815;-89
2021/12/24 09:33:31;;;;;;;30.10;9.53;;;9.80;99.90;;;;;;4953458;29;20475;-84
2021/12/24 09:35:59;;;;;;;27.10;9.37;;;9.80;99.90;;;;;;4953972;29;20770;-89
2021/12/24 09:38:26;;;;;;;29.53;8.93;;;9.80;99.90;;;;;;4953916;29;20213;-88
2021/12/24 09:40:53;;;;;;;36.03;10.83;;;9.80;99.90;;;;;;4954309;29;20510;-87
2021/12/24 09:43:20;;;;;;;29.67;9.80;;;9.90;99.90;;;;;;4950897;28;20242;-85
2021/12/24 09:45:47;;;;;;;37.27;11.47;;;9.80;99.90;;;;;;4954011;29;20216;-88
2021/12/24 09:48:13;;;;;;;34.40;10.97;;;9.90;99.90;;;;;;4954393;29;20212;-90
2021/12/24 09:50:40;;;;;;;38.20;12.50;;;9.90;99.90;;;;;;4950591;29;20487;-93
2021/12/24 09:53:08;;;;;;;38.57;11.00;;;9.90;99.90;;;;;;4950770;29;20217;-91
2021/12/24 09:55:36;;;;;;;33.13;11.30;;;9.90;99.90;;;;;;4953916;29;20217;-91
2021/12/24 09:58:02;;;;;;;38.03;11.67;;;10.00;99.90;;;;;;4947657;29;20214;-85
2021/12/24 10:00:31;;;;;;;41.77;10.83;;;10.00;99.90;;;;;;4933968;29;20202;-90
2021/12/24 10:03:00;;;;;;;38.90;12.03;;;10.00;99.90;;;;;;4934949;29;20202;-91
2021/12/24 10:05:33;;;;;;;41.63;10.17;;;10.10;99.90;;;;;;4945681;29;20208;-91
2021/12/24 10:08:03;;;;;;;38.83;10.13;;;10.00;99.90;;;;;;4954341;29;20193;-93
2021/12/24 10:10:32;;;;;;;28.87;9.70;;;10.10;99.90;;;;;;4954168;29;20229;-85
2021/12/24 10:13:31;;;;;;;31.40;10.50;;;10.10;99.90;;;;;;4954254;29;20535;-88
2021/12/24 10:16:00;;;;;;;35.80;8.23;;;10.20;99.90;;;;;;4935015;29;20191;-89
2021/12/24 10:18:33;;;;;;;31.17;7.63;;;10.20;99.90;;;;;;4935179;29;20221;-91
2021/12/24 10:21:03;;;;;;;30.07;7.83;;;10.20;99.90;;;;;;4934396;29;20206;-84
2021/12/24 10:23:48;;;;;;;30.63;8.30;;;10.10;99.90;;;;;;4934177;29;20213;-90
2021/12/24 10:26:20;;;;;;;29.03;6.70;;;10.10;99.90;;;;;;4935113;29;20206;-89
2021/12/24 10:28:56;;;;;;;30.60;7.13;;;10.10;99.90;;;;;;4934171;29;20246;-85
2021/12/24 10:31:25;;;;;;;21.23;5.83;;;10.10;99.90;;;;;;4934568;29;20217;-87
2021/12/24 10:34:16;;;;;;;29.80;7.13;;;10.10;99.90;;;;;;4937687;29;20205;-88
2021/12/24 10:37:12;;;;;;;28.53;7.10;;;10.20;99.90;;;;;;4937281;29;20213;-92
2021/12/24 10:39:45;;;;;;;23.60;5.53;;;10.20;99.90;;;;;;4956733;29;20243;-87
2021/12/24 10:42:17;;;;;;;28.20;7.03;;;10.20;99.90;;;;;;4960707;29;20221;-93
2021/12/24 10:44:46;;;;;;;29.50;7.87;;;10.20;99.90;;;;;;4959908;28;20233;-89
2021/12/24 10:47:17;;;;;;;28.50;6.50;;;10.30;99.90;;;;;;4941002;29;20222;-91
2021/12/24 10:49:58;;;;;;;26.20;7.00;;;10.30;99.90;;;;;;4939759;29;20213;-86
2021/12/24 10:52:43;;;;;;;28.23;7.13;;;10.30;99.90;;;;;;4949031;29;20212;-93
2021/12/24 10:55:15;;;;;;;18.93;6.23;;;10.30;99.90;;;;;;4947889;29;20317;-91
2021/12/24 10:57:46;;;;;;;21.87;6.03;;;10.30;99.90;;;;;;4944977;29;20213;-90
2021/12/24 11:00:21;;;;;;;24.87;7.77;;;10.30;99.90;;;;;;4936705;29;20517;-91
2021/12/24 11:02:53;;;;;;;27.50;6.40;;;10.30;99.90;;;;;;4937245;29;20217;-86
2021/12/24 11:05:31;;;;;;;21.83;6.23;;;10.20;99.90;;;;;;4937702;29;20210;-91
2021/12/24 11:08:00;;;;;;;25.03;6.57;;;10.20;99.90;;;;;;4938025;29;20197;-92
2021/12/24 11:10:29;;;;;;;32.03;8.03;;;10.20;99.90;;;;;;4936705;29;20233;-89
2021/12/24 11:12:58;;;;;;;31.07;8.30;;;10.30;99.90;;;;;;4944008;29;20212;-93
2021/12/24 11:15:29;;;;;;;24.97;7.40;;;10.20;99.90;;;;;;4957025;29;20304;-89
2021/12/24 11:17:58;;;;;;;22.87;7.17;;;10.30;99.90;;;;;;4957025;29;20870;-90
2021/12/24 11:20:25;;;;;;;16.80;6.73;;;10.30;99.90;;;;;;4956480;29;20218;-90
2021/12/24 11:22:58;;;;;;;22.53;6.20;;;10.30;99.90;;;;;;4937189;29;20201;-92
2021/12/24 11:25:28;;;;;;;27.70;7.50;;;10.30;99.90;;;;;;4943708;29;20266;-92
2021/12/24 11:27:56;;;;;;;27.97;7.60;;;10.20;99.90;;;;;;4956544;29;20201;-90
2021/12/24 11:30:25;;;;;;;21.43;6.47;;;10.20;99.90;;;;;;4955997;29;20805;-89
2021/12/24 11:32:52;;;;;;;27.50;8.23;;;10.20;99.90;;;;;;4956005;29;20205;-92
2021/12/24 11:35:20;;;;;;;20.10;6.80;;;10.30;99.90;;;;;;4957067;29;20593;-93
2021/12/24 11:37:49;;;;;;;25.53;8.33;;;10.20;99.90;;;;;;4956728;29;20205;-93
2021/12/24 11:40:19;;;;;;;25.57;7.50;;;10.30;99.90;;;;;;4956109;29;20300;-92
2021/12/24 11:42:51;;;;;;;25.57;8.43;;;10.30;99.90;;;;;;4956165;28;20209;-91
2021/12/24 11:45:21;;;;;;;25.30;8.30;;;10.30;99.90;;;;;;4955219;28;20209;-92
2021/12/24 11:47:48;;;;;;;21.10;6.87;;;10.30;99.90;;;;;;4955347;29;20219;-91
2021/12/24 11:50:16;;;;;;;24.63;7.83;;;10.30;99.90;;;;;;4954613;29;20225;-93
2021/12/24 11:52:43;;;;;;;19.70;6.53;;;10.30;99.90;;;;;;4955786;29;20637;-89
2021/12/24 11:55:10;;;;;;;20.87;6.27;;;10.30;99.90;;;;;;4955853;29;20209;-92
2021/12/24 11:57:53;;;;;;;21.60;6.47;;;10.20;99.90;;;;;;4955942;29;20294;-92
2021/12/24 12:00:30;;;;;;;19.43;6.03;;;10.20;99.90;;;;;;4956163;29;20200;-92
2021/12/24 12:02:57;;;;;;;16.97;6.23;;;10.20;99.90;;;;;;4956304;29;20209;-90
2021/12/24 12:05:28;;;;;;;24.13;8.17;;;10.20;99.90;;;;;;4943763;29;20222;-92
2021/12/24 12:08:33;;;;;;;22.03;6.73;;;10.10;99.90;;;;;;4936472;29;20210;-92
2021/12/24 12:11:02;;;;;;;14.40;5.53;;;10.10;99.90;;;;;;4939268;29;20233;-90
2021/12/24 12:13:44;;;;;;;11.90;3.20;;;10.10;99.90;;;;;;4937863;29;20296;-91
2021/12/24 12:16:14;;;;;;;10.50;2.40;;;10.00;99.90;;;;;;4936852;29;20202;-91
2021/12/24 12:18:48;;;;;;;7.23;2.00;;;10.00;99.90;;;;;;4937205;29;20206;-91
2021/12/24 12:21:20;;;;;;;9.23;1.70;;;9.90;99.90;;;;;;4954275;29;20205;-90
2021/12/24 12:26:47;;;;;;;4.53;1.30;;;9.80;99.90;;;;;;4935494;29;20252;-93
2021/12/24 12:29:29;;;;;;;4.40;1.43;;;9.80;99.90;;;;;;4953186;29;20240;-90
2021/12/24 12:32:04;;;;;;;5.17;1.47;;;9.70;99.90;;;;;;4955466;29;20220;-91
2021/12/24 12:34:51;;;;;;;4.77;1.50;;;9.70;99.90;;;;;;4940053;29;20587;-91
2021/12/24 12:37:22;;;;;;;4.03;1.10;;;9.60;99.90;;;;;;4936184;29;20306;-87
2021/12/24 12:39:51;;;;;;;3.73;1.23;;;9.60;99.90;;;;;;4936536;29;20749;-87
2021/12/24 12:42:19;;;;;;;4.47;0.90;;;9.50;99.90;;;;;;4942637;29;20228;-91
2021/12/24 12:44:49;;;;;;;5.03;1.27;;;9.50;99.90;;;;;;4955100;28;20233;-88
2021/12/24 12:47:19;;;;;;;6.10;1.60;;;9.50;99.90;;;;;;4954930;29;20218;-87
2021/12/24 12:49:47;;;;;;;4.33;1.37;;;9.50;99.90;;;;;;4935648;29;20229;-90
2021/12/24 12:52:29;;;;;;;3.27;1.40;;;9.40;99.90;;;;;;4935659;29;20202;-93
2021/12/24 12:54:58;;;;;;;5.90;1.10;;;9.40;99.90;;;;;;4943497;29;20213;-90
2021/12/24 12:58:22;;;;;;;4.80;1.73;;;9.40;99.90;;;;;;4920608;28;20315;-94
2021/12/24 13:24:45;;;;;;;2.63;1.80;;;9.30;99.90;;;;;;4840001;29;20215;-88
2021/12/24 13:27:13;;;;;;;3.73;1.47;;;9.30;99.90;;;;;;4842017;29;20229;-91
2021/12/24 13:29:40;;;;;;;6.17;1.80;;;9.30;99.90;;;;;;4841146;29;20239;-86
2021/12/24 13:32:09;;;;;;;4.40;1.50;;;9.20;99.90;;;;;;4840037;29;20607;-83
2021/12/24 13:34:39;;;;;;;3.73;2.30;;;9.30;99.90;;;;;;4826285;29;20224;-87
2021/12/24 13:37:14;;;;;;;7.03;2.10;;;9.30;99.90;;;;;;4822764;29;20269;-92
2021/12/24 13:39:50;;;;;;;3.83;1.77;;;9.30;99.90;;;;;;4828892;29;20208;-91
2021/12/24 13:42:18;;;;;;;5.63;1.83;;;9.30;99.90;;;;;;4827347;29;20646;-93
2021/12/24 13:44:48;;;;;;;8.37;2.93;;;9.30;99.90;;;;;;4832539;29;20271;-91
2021/12/24 13:47:24;;;;;;;5.97;3.37;;;9.30;99.90;;;;;;4850819;29;20242;-90
2021/12/24 13:55:45;;;;;;;6.03;2.17;;;9.20;99.90;;;;;;4840101;29;20788;-87
2021/12/24 13:58:21;;;;;;;7.43;3.50;;;9.20;99.90;;;;;;4856750;29;20575;-92
2021/12/24 14:00:50;;;;;;;8.20;4.30;;;9.20;99.90;;;;;;4876666;29;20584;-93
2021/12/24 14:03:19;;;;;;;6.17;1.90;;;9.20;99.90;;;;;;4875374;29;20754;-89
2021/12/24 14:05:47;;;;;;;4.27;1.50;;;9.20;99.90;;;;;;4881415;29;20208;-92
2021/12/24 14:08:20;;;;;;;3.80;2.20;;;9.20;99.90;;;;;;4877806;29;20199;-89
2021/12/24 14:10:50;;;;;;;4.37;2.10;;;9.10;99.90;;;;;;4858505;29;20296;-87
2021/12/24 14:13:24;;;;;;;3.43;1.73;;;9.10;99.90;;;;;;4855814;29;20379;-90
2021/12/24 14:16:03;;;;;;;6.23;2.03;;;9.10;99.90;;;;;;4870002;29;20206;-85
2021/12/24 14:18:45;;;;;;;9.50;2.17;;;9.10;99.90;;;;;;4872881;29;20206;-85
2021/12/24 14:24:13;;;;;;;5.97;2.90;;;9.10;99.90;;;;;;4892051;29;20765;-85
2021/12/24 14:26:42;;;;;;;3.57;2.07;;;9.10;99.90;;;;;;4891124;29;20576;-87
2021/12/24 14:29:10;;;;;;;6.30;3.40;;;9.00;99.90;;;;;;4909752;29;20408;-87
2021/12/24 14:31:53;;;;;;;7.17;3.60;;;9.00;99.90;;;;;;4912644;29;20221;-89
2021/12/24 14:34:35;;;;;;;4.50;2.07;;;8.90;99.90;;;;;;4903706;29;20217;-86
2021/12/24 14:37:05;;;;;;;5.23;2.47;;;8.90;99.90;;;;;;4895209;29;20198;-86
2021/12/24 14:39:39;;;;;;;6.13;3.47;;;8.90;99.90;;;;;;4893779;29;20390;-91
2021/12/24 14:42:17;;;;;;;6.63;2.67;;;8.90;99.90;;;;;;4895409;29;20398;-85
2021/12/24 14:44:46;;;;;;;4.00;2.43;;;8.90;99.90;;;;;;4898620;29;20224;-87
2021/12/24 14:47:17;;;;;;;17.93;10.30;;;8.80;99.90;;;;;;4914988;29;20618;-90